createdAt,value
2023-02-15T00:00:31.078Z,9.43
2023-02-15T00:03:00.093Z,5.30
2023-02-15T00:05:30.382Z,6.13
2023-02-15T00:08:00.781Z,6.07
2023-02-15T00:10:29.819Z,8.40
2023-02-15T00:12:58.802Z,8.57
2023-02-15T00:15:30.813Z,6.83
2023-02-15T00:18:00.035Z,10.07
2023-02-15T00:20:29.299Z,8.97
2023-02-15T00:22:58.324Z,9.87
2023-02-15T00:25:28.792Z,13.03
2023-02-15T00:28:02.483Z,7.97
2023-02-15T00:30:31.481Z,7.30
2023-02-15T00:33:00.430Z,8.60
2023-02-15T00:35:29.377Z,8.83
2023-02-15T00:37:58.635Z,12.40
2023-02-15T00:40:31.763Z,7.07
2023-02-15T00:43:00.818Z,6.97
2023-02-15T00:45:29.739Z,9.33
2023-02-15T00:47:58.673Z,11.90
2023-02-15T00:50:27.728Z,22.07
2023-02-15T00:52:56.701Z,6.93
2023-02-15T00:55:25.704Z,8.57
2023-02-15T00:57:56.042Z,7.47
2023-02-15T01:00:25.160Z,8.17
2023-02-15T01:02:54.149Z,6.07
2023-02-15T01:05:23.141Z,6.67
2023-02-15T01:07:54.400Z,8.63
2023-02-15T01:10:23.743Z,13.77
2023-02-15T01:12:53.091Z,8.80
2023-02-15T01:15:24.539Z,10.13
2023-02-15T01:17:54.352Z,6.03
2023-02-15T01:20:28.423Z,6.00
2023-02-15T01:22:59.034Z,12.03
2023-02-15T01:25:28.011Z,8.87
2023-02-15T01:28:00.016Z,9.57
2023-02-15T01:30:30.403Z,5.97
2023-02-15T01:32:59.495Z,9.53
2023-02-15T01:35:28.663Z,6.73
2023-02-15T01:37:58.379Z,6.10
2023-02-15T01:40:29.759Z,11.93
2023-02-15T01:42:58.865Z,6.40
2023-02-15T01:45:32.502Z,5.43
2023-02-15T01:48:06.647Z,6.33
2023-02-15T01:50:39.750Z,10.77
2023-02-15T01:53:16.319Z,6.93
2023-02-15T01:55:54.546Z,9.57
2023-02-15T01:58:25.144Z,10.63
2023-02-15T02:00:56.719Z,5.67
2023-02-15T02:03:38.622Z,8.20
2023-02-15T02:06:07.756Z,10.60
2023-02-15T02:08:37.354Z,12.10
2023-02-15T02:11:13.295Z,8.30
2023-02-15T02:13:43.128Z,7.20
2023-02-15T02:16:23.257Z,5.80
2023-02-15T02:19:20.168Z,5.40
2023-02-15T02:22:52.296Z,8.37
2023-02-15T02:25:54.935Z,4.53
2023-02-15T02:28:57.529Z,5.70
2023-02-15T02:32:04.379Z,6.10
2023-02-15T02:34:38.840Z,10.07
2023-02-15T02:37:21.603Z,5.93
2023-02-15T02:39:58.757Z,5.43
2023-02-15T02:42:38.053Z,6.53
2023-02-15T02:45:10.944Z,6.27
2023-02-15T02:47:46.239Z,7.80
2023-02-15T02:50:20.411Z,11.47
2023-02-15T02:52:52.296Z,6.43
2023-02-15T02:55:29.800Z,4.67
2023-02-15T02:58:07.356Z,5.17
2023-02-15T03:00:42.478Z,6.27
2023-02-15T03:03:16.062Z,8.07
2023-02-15T03:05:50.428Z,6.50
2023-02-15T03:08:23.664Z,26.83
2023-02-15T03:10:58.216Z,5.20
2023-02-15T03:13:27.606Z,5.40
2023-02-15T03:16:15.068Z,6.83
2023-02-15T03:18:53.983Z,10.37
2023-02-15T03:21:34.730Z,12.90
2023-02-15T03:24:12.595Z,11.77
2023-02-15T03:26:45.690Z,7.07
2023-02-15T03:29:17.611Z,9.97
2023-02-15T03:31:52.504Z,7.03
2023-02-15T03:34:21.873Z,7.47
2023-02-15T03:37:00.423Z,7.17
2023-02-15T03:39:35.829Z,7.03
2023-02-15T03:42:14.122Z,6.03
2023-02-15T03:44:53.728Z,6.60
2023-02-15T03:47:29.532Z,7.00
2023-02-15T03:50:25.640Z,6.60
2023-02-15T03:52:57.971Z,7.57
2023-02-15T03:55:27.442Z,8.90
2023-02-15T03:58:13.847Z,6.90
2023-02-15T04:01:11.469Z,7.00
2023-02-15T04:03:44.235Z,6.27
2023-02-15T04:06:13.248Z,6.00
2023-02-15T04:09:03.294Z,6.33
2023-02-15T04:11:35.248Z,5.73
2023-02-15T04:14:24.210Z,14.10
2023-02-15T04:16:52.295Z,6.43
2023-02-15T04:19:41.858Z,7.13
2023-02-15T04:22:31.783Z,6.03
2023-02-15T04:25:14.458Z,6.90
2023-02-15T04:27:49.374Z,6.43
2023-02-15T04:30:20.618Z,6.57
2023-02-15T04:32:52.112Z,5.83
2023-02-15T04:35:21.375Z,6.37
2023-02-15T04:37:52.839Z,10.30
2023-02-15T04:40:23.292Z,10.23
2023-02-15T04:42:52.359Z,7.40
2023-02-15T04:45:21.816Z,7.47
2023-02-15T04:47:51.156Z,6.97
2023-02-15T04:50:22.356Z,6.23
2023-02-15T04:52:51.373Z,10.67
2023-02-15T04:55:24.627Z,5.50
2023-02-15T04:57:53.622Z,6.20
2023-02-15T05:00:22.764Z,6.07
2023-02-15T05:02:54.104Z,7.73
2023-02-15T05:05:23.099Z,6.77
2023-02-15T05:07:52.205Z,5.43
2023-02-15T05:10:21.503Z,6.50
2023-02-15T05:12:51.866Z,5.13
2023-02-15T05:15:20.874Z,5.60
2023-02-15T05:17:52.861Z,4.60
2023-02-15T05:20:21.812Z,5.27
2023-02-15T05:22:50.801Z,5.33
2023-02-15T05:25:39.315Z,5.30
2023-02-15T05:28:22.223Z,5.03
2023-02-15T05:30:52.987Z,5.20
2023-02-15T05:33:22.671Z,6.10
2023-02-15T05:35:52.243Z,5.93
2023-02-15T05:38:21.261Z,6.30
2023-02-15T05:40:50.314Z,7.33
2023-02-15T05:43:21.097Z,7.90
2023-02-15T05:45:50.798Z,7.13
2023-02-15T05:48:21.067Z,5.93
2023-02-15T05:51:00.303Z,5.63
2023-02-15T05:53:30.818Z,4.90
2023-02-15T05:56:01.439Z,4.90
2023-02-15T05:58:37.681Z,5.30
2023-02-15T06:01:11.160Z,4.27
2023-02-15T06:03:40.425Z,4.60
2023-02-15T06:06:12.880Z,5.00
2023-02-15T06:08:42.059Z,5.07
2023-02-15T06:11:11.841Z,6.23
2023-02-15T06:13:42.458Z,5.80
2023-02-15T06:16:11.560Z,5.60
2023-02-15T06:18:40.630Z,5.77
2023-02-15T06:21:09.774Z,6.40
2023-02-15T06:23:38.970Z,6.63
2023-02-15T06:26:07.992Z,5.43
2023-02-15T06:28:38.272Z,6.77
2023-02-15T06:31:09.104Z,6.83
2023-02-15T06:33:41.196Z,6.83
2023-02-15T06:36:10.210Z,7.40
2023-02-15T06:38:39.213Z,6.83
2023-02-15T06:41:08.192Z,9.33
2023-02-15T06:43:37.366Z,9.27
2023-02-15T06:46:08.423Z,9.13
2023-02-15T06:48:37.714Z,7.70
2023-02-15T06:51:06.656Z,7.33
2023-02-15T06:53:36.643Z,6.47
2023-02-15T06:56:07.720Z,6.60
2023-02-15T06:58:36.862Z,6.40
2023-02-15T07:01:06.517Z,9.67
2023-02-15T07:03:37.767Z,7.70
2023-02-15T07:06:09.485Z,6.40
2023-02-15T07:08:39.406Z,6.53
2023-02-15T07:11:26.945Z,6.10
2023-02-15T07:13:55.968Z,7.57
2023-02-15T07:16:25.056Z,8.03
2023-02-15T07:18:55.442Z,8.40
2023-02-15T07:21:24.410Z,7.50
2023-02-15T07:23:53.637Z,7.97
2023-02-15T07:26:22.602Z,7.63
2023-02-15T07:28:51.788Z,7.33
2023-02-15T07:31:21.184Z,5.93
2023-02-15T07:33:50.197Z,7.07
2023-02-15T07:36:20.568Z,7.53
2023-02-15T07:38:49.553Z,8.07
2023-02-15T07:41:18.987Z,8.87
2023-02-15T07:43:50.236Z,7.70
2023-02-15T07:46:21.099Z,8.30
2023-02-15T07:48:50.405Z,6.73
2023-02-15T07:51:20.730Z,7.97
2023-02-15T07:53:53.537Z,7.93
2023-02-15T07:56:22.542Z,7.97
2023-02-15T07:58:54.958Z,8.33
2023-02-15T08:01:26.939Z,8.70
2023-02-15T08:03:56.743Z,7.70
2023-02-15T08:06:30.357Z,7.90
2023-02-15T08:08:59.337Z,6.37
2023-02-15T08:11:33.707Z,6.13
2023-02-15T08:14:05.270Z,7.27
2023-02-15T08:16:37.236Z,6.93
2023-02-15T08:19:09.214Z,7.63
2023-02-15T08:21:42.153Z,8.17
2023-02-15T08:24:13.773Z,11.43
2023-02-15T08:26:45.987Z,7.10
2023-02-15T08:29:23.843Z,7.10
2023-02-15T08:32:04.906Z,7.90
2023-02-15T08:34:41.259Z,8.07
2023-02-15T08:37:11.918Z,7.90
2023-02-15T08:39:41.236Z,8.80
2023-02-15T08:42:12.845Z,8.77
2023-02-15T08:44:41.890Z,9.40
2023-02-15T08:47:13.692Z,9.00
2023-02-15T08:49:46.954Z,6.60
2023-02-15T08:52:21.219Z,8.60
2023-02-15T08:54:50.352Z,7.77
2023-02-15T08:57:19.526Z,8.70
2023-02-15T08:59:57.132Z,8.17
2023-02-15T09:02:34.904Z,9.67
2023-02-15T09:05:07.784Z,9.10
2023-02-15T09:07:41.502Z,9.47
2023-02-15T09:10:13.876Z,9.00
2023-02-15T09:12:54.654Z,8.27
2023-02-15T09:15:23.984Z,6.23
2023-02-15T09:17:56.030Z,7.97
2023-02-15T09:20:30.355Z,7.60
2023-02-15T09:23:04.202Z,8.40
2023-02-15T09:25:44.610Z,8.77
2023-02-15T09:28:13.804Z,9.00
2023-02-15T09:30:56.619Z,6.40
2023-02-15T09:33:29.468Z,7.43
2023-02-15T09:35:59.008Z,6.63
2023-02-15T09:38:29.403Z,6.80
2023-02-15T09:41:16.363Z,6.67
2023-02-15T09:44:01.483Z,6.40
2023-02-15T09:46:56.471Z,5.73
2023-02-15T09:49:35.179Z,5.60
2023-02-15T09:52:24.625Z,5.33
2023-02-15T09:55:16.905Z,6.37
2023-02-15T09:57:55.795Z,7.63
2023-02-15T10:00:35.820Z,8.30
2023-02-15T10:03:20.961Z,7.57
2023-02-15T10:06:25.608Z,6.00
2023-02-15T10:09:11.596Z,6.67
2023-02-15T10:11:57.177Z,6.27
2023-02-15T10:15:05.644Z,7.10
2023-02-15T10:17:54.281Z,7.67
2023-02-15T10:20:34.180Z,7.23
2023-02-15T10:23:31.354Z,7.27
2023-02-15T10:26:15.026Z,9.17
2023-02-15T10:28:50.857Z,9.13
2023-02-15T10:31:33.529Z,9.63
2023-02-15T10:34:17.487Z,9.10
2023-02-15T10:37:19.155Z,8.43
2023-02-15T10:40:01.018Z,8.80
2023-02-15T10:42:41.420Z,10.97
2023-02-15T10:45:24.926Z,10.63
2023-02-15T10:48:16.784Z,9.93
2023-02-15T10:50:52.319Z,10.07
2023-02-15T10:54:04.396Z,7.83
2023-02-15T10:56:40.877Z,9.80
2023-02-15T10:59:29.713Z,10.63
2023-02-15T11:02:07.200Z,9.97
2023-02-15T11:05:03.533Z,9.30
2023-02-15T11:07:40.794Z,10.27
2023-02-15T11:10:27.226Z,10.77
2023-02-15T11:12:59.304Z,13.03
2023-02-15T11:15:36.555Z,12.40
2023-02-15T11:18:15.493Z,12.47
2023-02-15T11:20:53.417Z,14.53
2023-02-15T11:23:23.101Z,12.13
2023-02-15T11:25:59.636Z,12.10
2023-02-15T11:28:34.271Z,12.07
2023-02-15T11:31:15.194Z,11.27
2023-02-15T11:33:50.259Z,12.27
2023-02-15T11:36:23.773Z,12.57
2023-02-15T11:39:00.383Z,11.33
2023-02-15T11:41:34.387Z,12.80
2023-02-15T11:44:09.057Z,11.37
2023-02-15T11:46:39.528Z,11.73
2023-02-15T11:49:31.806Z,11.70
2023-02-15T11:52:05.012Z,14.03
2023-02-15T11:54:38.180Z,12.27
2023-02-15T11:57:16.847Z,13.10
2023-02-15T11:59:50.492Z,13.57
2023-02-15T12:02:23.016Z,14.10
2023-02-15T12:04:57.955Z,12.37
2023-02-15T12:07:31.026Z,12.73
2023-02-15T12:10:12.812Z,10.40
2023-02-15T12:12:42.327Z,10.77
2023-02-15T12:15:15.971Z,9.33
2023-02-15T12:17:53.638Z,12.00
2023-02-15T12:20:33.800Z,10.13
2023-02-15T12:23:06.266Z,12.07
2023-02-15T12:25:39.936Z,12.43
2023-02-15T12:28:26.928Z,13.43
2023-02-15T12:30:57.694Z,13.27
2023-02-15T12:33:32.390Z,12.83
2023-02-15T12:36:13.727Z,12.50
2023-02-15T12:38:42.718Z,12.60
2023-02-15T12:41:26.368Z,13.10
2023-02-15T12:44:14.746Z,12.87
2023-02-15T12:46:45.809Z,10.90
2023-02-15T12:49:21.276Z,11.27
2023-02-15T12:51:54.253Z,12.13
2023-02-15T12:54:36.425Z,14.30
2023-02-15T12:57:29.361Z,11.53
2023-02-15T13:00:00.671Z,13.40
2023-02-15T13:02:44.396Z,14.70
2023-02-15T13:05:24.588Z,13.37
2023-02-15T13:07:59.314Z,14.63
2023-02-15T13:10:31.432Z,15.00
2023-02-15T13:13:03.770Z,14.73
2023-02-15T13:15:38.110Z,21.50
2023-02-15T13:18:13.622Z,17.27
2023-02-15T13:20:47.071Z,15.33
2023-02-15T13:23:29.436Z,12.23
2023-02-15T13:26:01.146Z,13.07
2023-02-15T13:28:40.942Z,12.53
2023-02-15T13:31:16.429Z,20.37
2023-02-15T13:33:52.523Z,16.93
2023-02-15T13:36:30.283Z,14.77
2023-02-15T13:39:14.026Z,13.83
2023-02-15T13:41:55.630Z,13.20
2023-02-15T13:44:55.354Z,14.43
2023-02-15T13:47:30.090Z,11.97
2023-02-15T13:50:24.918Z,11.90
2023-02-15T13:53:11.973Z,11.43
2023-02-15T13:55:49.826Z,12.10
2023-02-15T13:59:04.957Z,12.27
2023-02-15T14:01:44.503Z,10.63
2023-02-15T14:04:46.650Z,12.00
2023-02-15T14:07:52.417Z,13.87
2023-02-15T14:10:34.960Z,13.30
2023-02-15T14:13:56.052Z,13.30
2023-02-15T14:16:38.074Z,13.77
2023-02-15T14:19:18.905Z,12.97
2023-02-15T14:21:53.938Z,12.83
2023-02-15T14:24:37.153Z,11.50
2023-02-15T14:27:18.885Z,10.37
2023-02-15T14:29:55.404Z,11.37
2023-02-15T14:32:33.647Z,13.20
2023-02-15T14:35:06.002Z,12.17
2023-02-15T14:37:45.312Z,15.37
2023-02-15T14:40:47.816Z,15.53
2023-02-15T14:43:34.405Z,13.67
2023-02-15T14:46:16.571Z,12.40
2023-02-15T14:48:50.021Z,10.90
2023-02-15T14:51:57.734Z,10.23
2023-02-15T14:54:57.135Z,10.60
2023-02-15T14:57:35.392Z,12.47
2023-02-15T15:00:39.474Z,13.60
2023-02-15T15:03:27.720Z,14.43
2023-02-15T15:06:01.363Z,14.03
2023-02-15T15:08:38.807Z,12.43
2023-02-15T15:11:44.215Z,12.50
2023-02-15T15:14:43.136Z,14.37
2023-02-15T15:17:54.619Z,14.87
2023-02-15T15:20:50.961Z,12.50
2023-02-15T15:23:45.159Z,15.70
2023-02-15T15:26:34.364Z,13.93
2023-02-15T15:29:05.328Z,16.00
2023-02-15T15:31:46.274Z,16.60
2023-02-15T15:35:04.042Z,17.87
2023-02-15T15:37:59.078Z,17.03
2023-02-15T15:40:51.017Z,18.73
2023-02-15T15:44:08.379Z,17.00
2023-02-15T15:47:03.733Z,17.87
2023-02-15T15:49:35.270Z,18.93
2023-02-15T15:52:16.959Z,19.13
2023-02-15T15:54:51.274Z,18.63
2023-02-15T15:57:29.731Z,18.63
2023-02-15T16:00:01.147Z,17.83
2023-02-15T16:02:30.497Z,18.20
2023-02-15T16:05:10.270Z,16.77
2023-02-15T16:07:43.039Z,16.13
2023-02-15T16:10:26.191Z,16.10
2023-02-15T16:12:56.603Z,16.80
2023-02-15T16:15:28.171Z,15.93
2023-02-15T16:18:00.121Z,13.47
2023-02-15T16:20:33.119Z,14.73
2023-02-15T16:23:33.371Z,16.80
2023-02-15T16:26:14.779Z,16.10
2023-02-15T16:28:51.084Z,16.60
2023-02-15T16:31:23.230Z,14.20
2023-02-15T16:33:56.317Z,15.37
2023-02-15T16:36:28.077Z,18.23
2023-02-15T16:39:22.400Z,19.60
2023-02-15T16:41:57.364Z,18.57
2023-02-15T16:44:26.626Z,19.77
2023-02-15T16:46:56.623Z,16.37
2023-02-15T16:49:30.141Z,14.27
2023-02-15T16:52:02.454Z,15.70
2023-02-15T16:54:33.068Z,23.80
2023-02-15T16:57:04.461Z,16.70
2023-02-15T16:59:40.593Z,17.37
2023-02-15T17:02:40.096Z,18.70
2023-02-15T17:05:21.771Z,18.80
2023-02-15T17:08:16.743Z,19.43
2023-02-15T17:10:49.222Z,22.87
2023-02-15T17:13:20.286Z,24.13
2023-02-15T17:16:32.655Z,19.97
2023-02-15T17:19:02.724Z,20.70
2023-02-15T17:21:35.922Z,17.90
2023-02-15T17:24:06.402Z,19.53
2023-02-15T17:26:39.834Z,19.43
2023-02-15T17:29:24.480Z,19.03
2023-02-15T17:31:56.855Z,23.00
2023-02-15T17:34:53.008Z,21.37
2023-02-15T17:37:32.669Z,21.50
2023-02-15T17:40:03.512Z,21.50
2023-02-15T17:42:32.584Z,21.37
2023-02-15T17:45:02.995Z,20.67
2023-02-15T17:47:32.649Z,20.10
2023-02-15T17:50:05.188Z,18.53
2023-02-15T17:52:34.257Z,18.33
2023-02-15T17:55:32.789Z,17.57
2023-02-15T17:58:03.129Z,16.93
2023-02-15T18:00:54.243Z,18.20
2023-02-15T18:03:41.022Z,17.07
2023-02-15T18:06:35.181Z,16.23
2023-02-15T18:09:27.407Z,13.03
2023-02-15T18:11:56.408Z,13.23
2023-02-15T18:14:25.851Z,15.07
2023-02-15T18:16:57.093Z,20.23
2023-02-15T18:19:27.610Z,16.30
2023-02-15T18:21:57.982Z,15.60
2023-02-15T18:24:28.219Z,21.00
2023-02-15T18:26:57.640Z,18.47
2023-02-15T18:29:26.601Z,17.93
2023-02-15T18:31:58.298Z,16.93
2023-02-15T18:34:34.427Z,28.37
2023-02-15T18:37:06.713Z,18.53
2023-02-15T18:39:40.125Z,16.80
2023-02-15T18:42:21.045Z,20.40
2023-02-15T18:44:50.360Z,14.10
2023-02-15T18:47:20.743Z,18.30
2023-02-15T18:49:49.819Z,17.23
2023-02-15T18:52:24.522Z,15.27
2023-02-15T18:54:57.081Z,15.40
2023-02-15T18:57:26.189Z,15.50
2023-02-15T18:59:55.231Z,24.73
2023-02-15T19:02:25.929Z,13.23
2023-02-15T19:04:54.898Z,18.23
2023-02-15T19:07:28.027Z,15.23
2023-02-15T19:10:00.401Z,15.30
2023-02-15T19:12:30.069Z,16.23
2023-02-15T19:14:59.061Z,14.10
2023-02-15T19:17:32.236Z,12.93
2023-02-15T19:20:01.227Z,14.50
2023-02-15T19:22:32.705Z,15.77
2023-02-15T19:25:04.686Z,15.07
2023-02-15T19:27:36.463Z,15.33
2023-02-15T19:30:18.629Z,12.50
2023-02-15T19:32:49.310Z,14.83
2023-02-15T19:35:22.314Z,15.53
2023-02-15T19:37:54.557Z,19.40
2023-02-15T19:40:27.640Z,16.10
2023-02-15T19:42:56.830Z,15.60
2023-02-15T19:45:27.937Z,17.70
2023-02-15T19:47:58.615Z,12.87
2023-02-15T19:50:31.624Z,11.97
2023-02-15T19:53:00.999Z,14.20
2023-02-15T19:55:32.883Z,14.17
2023-02-15T19:58:03.696Z,13.53
2023-02-15T20:00:35.192Z,11.40
2023-02-15T20:03:06.018Z,10.10
2023-02-15T20:05:38.362Z,12.63
2023-02-15T20:08:08.982Z,11.23
2023-02-15T20:10:39.180Z,13.23
2023-02-15T20:13:10.521Z,16.43
2023-02-15T20:15:41.025Z,14.13
2023-02-15T20:18:11.924Z,24.20
2023-02-15T20:20:44.213Z,19.77
2023-02-15T20:23:21.719Z,19.43
2023-02-15T20:25:51.453Z,14.20
2023-02-15T20:28:23.179Z,16.43
2023-02-15T20:30:52.417Z,13.33
2023-02-15T20:33:23.554Z,12.20
2023-02-15T20:35:53.526Z,17.40
2023-02-15T20:38:26.611Z,12.10
2023-02-15T20:41:18.710Z,11.63
2023-02-15T20:43:47.770Z,19.40
2023-02-15T20:46:16.830Z,11.87
2023-02-15T20:48:47.310Z,17.97
2023-02-15T20:51:19.668Z,17.87
2023-02-15T20:53:49.494Z,11.87
2023-02-15T20:56:22.986Z,14.13
2023-02-15T20:58:55.117Z,15.23
2023-02-15T21:01:24.184Z,17.23
2023-02-15T21:03:55.298Z,11.60
2023-02-15T21:06:24.361Z,17.77
2023-02-15T21:08:53.403Z,10.77
2023-02-15T21:11:24.347Z,9.17
2023-02-15T21:13:53.356Z,19.10
2023-02-15T21:16:22.447Z,11.33
2023-02-15T21:18:51.481Z,19.90
2023-02-15T21:21:24.696Z,11.30
2023-02-15T21:23:54.574Z,10.87
2023-02-15T21:26:24.414Z,9.73
2023-02-15T21:28:53.468Z,9.33
2023-02-15T21:31:25.553Z,8.47
2023-02-15T21:33:54.680Z,15.93
2023-02-15T21:36:26.871Z,11.53
2023-02-15T21:38:56.163Z,10.27
2023-02-15T21:41:45.213Z,11.70
2023-02-15T21:44:36.717Z,11.37
2023-02-15T21:47:24.581Z,11.93
2023-02-15T21:49:53.651Z,17.47
2023-02-15T21:52:23.998Z,9.87
2023-02-15T21:54:55.923Z,10.07
2023-02-15T21:57:24.927Z,12.07
2023-02-15T21:59:53.930Z,11.60
2023-02-15T22:02:29.351Z,14.80
2023-02-15T22:04:59.955Z,10.43
2023-02-15T22:07:30.366Z,14.30
2023-02-15T22:09:59.549Z,10.33
2023-02-15T22:12:28.569Z,11.10
2023-02-15T22:14:57.540Z,11.17
2023-02-15T22:17:29.039Z,10.30
2023-02-15T22:19:59.083Z,22.53
2023-02-15T22:22:30.837Z,15.67
2023-02-15T22:24:59.893Z,10.47
2023-02-15T22:27:31.607Z,8.27
2023-02-15T22:30:04.369Z,21.20
2023-02-15T22:32:33.561Z,10.17
2023-02-15T22:35:02.578Z,10.50
2023-02-15T22:37:33.172Z,11.97
2023-02-15T22:40:02.354Z,13.77
2023-02-15T22:42:31.378Z,14.97
2023-02-15T22:45:00.590Z,13.20
2023-02-15T22:47:34.518Z,11.10
2023-02-15T22:50:03.462Z,10.57
2023-02-15T22:52:33.874Z,10.13
2023-02-15T22:55:02.825Z,10.07
2023-02-15T22:57:33.893Z,10.83
2023-02-15T23:00:03.635Z,11.07
2023-02-15T23:02:32.698Z,11.33
2023-02-15T23:05:01.804Z,9.53
2023-02-15T23:07:30.930Z,21.53
2023-02-15T23:10:01.256Z,8.13
2023-02-15T23:12:53.654Z,9.63
2023-02-15T23:15:22.689Z,6.90
2023-02-15T23:17:51.690Z,8.13
2023-02-15T23:20:20.910Z,7.23
2023-02-15T23:22:50.009Z,8.83
2023-02-15T23:25:24.429Z,14.07
2023-02-15T23:27:59.145Z,11.57
2023-02-15T23:30:28.384Z,7.83
2023-02-15T23:32:58.785Z,9.17
2023-02-15T23:35:29.998Z,11.23
2023-02-15T23:38:01.837Z,9.73
2023-02-15T23:40:49.537Z,8.23
2023-02-15T23:43:24.014Z,7.70
2023-02-15T23:45:53.026Z,7.57
2023-02-15T23:48:31.595Z,8.27
2023-02-15T23:51:01.556Z,8.77
2023-02-15T23:53:31.223Z,8.77
2023-02-15T23:56:01.880Z,8.83
2023-02-15T23:58:37.791Z,9.40
